Time;durP1;ratioP1;P1;durP2;ratioP2;P2;SDS_P1;SDS_P2;PMS_P1;PMS_P2;Temp;Humidity;BMP_temperature;BMP_pressure;BME280_temperature;BME280_humidity;BME280_pressure;Samples;Min_cycle;Max_cycle;Signal;HPM_P1;HPM_P2
2023/10/24 00:01:02;;;;;;;8.18;6.18;;;;;;;11.44;100.00;100166.00;5002351;28;20549;-49
2023/10/24 00:03:27;;;;;;;10.88;7.00;;;;;;;11.44;100.00;100164.19;4999047;28;20034;-49
2023/10/24 00:05:53;;;;;;;11.30;6.60;;;;;;;11.45;100.00;100173.84;4999939;28;20050;-49
2023/10/24 00:08:18;;;;;;;6.70;6.05;;;;;;;11.44;100.00;100163.34;4997283;28;20034;-49
2023/10/24 00:10:43;;;;;;;9.88;6.25;;;;;;;11.45;100.00;100165.03;5013197;28;20105;-49
2023/10/24 00:13:09;;;;;;;13.02;6.38;;;;;;;11.44;100.00;100168.66;4999578;28;20034;-48
2023/10/24 00:15:34;;;;;;;10.07;6.15;;;;;;;11.45;100.00;100163.19;5001136;28;20472;-49
2023/10/24 00:17:59;;;;;;;10.27;6.00;;;;;;;11.45;100.00;100159.72;4998214;28;20121;-49
2023/10/24 00:20:25;;;;;;;8.38;6.57;;;;;;;11.45;100.00;100162.38;5001572;28;20026;-49
2023/10/24 00:22:50;;;;;;;8.77;6.30;;;;;;;11.45;100.00;100154.38;4997099;28;20430;-49
2023/10/24 00:25:15;;;;;;;7.85;5.75;;;;;;;11.45;100.00;100154.38;4996548;28;20041;-49
2023/10/24 00:27:41;;;;;;;11.88;6.43;;;;;;;11.45;100.00;100162.38;4998731;28;20077;-49
2023/10/24 00:30:06;;;;;;;9.75;6.57;;;;;;;11.43;100.00;100159.84;4998884;28;20018;-49
2023/10/24 00:32:31;;;;;;;10.02;6.07;;;;;;;11.45;100.00;100162.38;4994978;28;20048;-49
2023/10/24 00:34:57;;;;;;;10.82;6.18;;;;;;;11.43;100.00;100149.22;4996841;28;20106;-50
2023/10/24 00:37:22;;;;;;;6.72;5.95;;;;;;;11.43;100.00;100151.03;4997985;28;20030;-52
2023/10/24 00:39:48;;;;;;;8.75;6.13;;;;;;;11.41;100.00;100153.84;5000481;28;20018;-50
2023/10/24 00:42:13;;;;;;;10.75;5.78;;;;;;;11.41;100.00;100158.31;4996149;28;20479;-49
2023/10/24 00:44:38;;;;;;;10.05;6.25;;;;;;;11.41;100.00;100160.97;4997592;28;20041;-49
2023/10/24 00:47:04;;;;;;;8.65;5.65;;;;;;;11.40;100.00;100167.28;4997291;28;20050;-49
2023/10/24 00:49:30;;;;;;;9.65;5.75;;;;;;;11.39;100.00;100166.44;5000755;28;20034;-49
2023/10/24 00:51:56;;;;;;;8.32;5.55;;;;;;;11.37;100.00;100171.03;4998668;28;20022;-49
2023/10/24 00:54:22;;;;;;;10.18;5.80;;;;;;;11.37;100.00;100170.19;4998456;28;20029;-49
2023/10/24 00:56:50;;;;;;;6.70;5.15;;;;;;;11.36;100.00;100174.69;4994793;28;20047;-50
2023/10/24 00:59:17;;;;;;;5.90;4.90;;;;;;;11.37;100.00;100165.72;4997863;28;20095;-49
2023/10/24 01:01:43;;;;;;;6.40;5.07;;;;;;;11.36;100.00;100171.16;4997046;28;20208;-48
2023/10/24 01:04:09;;;;;;;6.68;5.05;;;;;;;11.36;100.00;100166.72;4996615;28;20108;-47
2023/10/24 01:06:34;;;;;;;7.82;5.40;;;;;;;11.37;100.00;100171.03;4998796;28;20106;-46
2023/10/24 01:08:59;;;;;;;8.10;5.10;;;;;;;11.38;100.00;100164.75;5001056;28;20462;-46
2023/10/24 01:11:25;;;;;;;5.05;4.28;;;;;;;11.38;100.00;100164.75;4996723;28;20030;-46
2023/10/24 01:13:50;;;;;;;4.30;3.78;;;;;;;11.37;100.00;100162.22;4998762;28;20067;-46
2023/10/24 01:16:16;;;;;;;6.57;3.97;;;;;;;11.35;100.00;100159.72;4997644;28;20045;-45
2023/10/24 01:18:42;;;;;;;6.55;3.55;;;;;;;11.34;100.00;100152.72;5017370;28;20050;-46
2023/10/24 01:21:07;;;;;;;4.57;3.60;;;;;;;11.35;100.00;100164.19;5002945;28;20117;-46
2023/10/24 01:23:34;;;;;;;6.47;3.55;;;;;;;11.34;100.00;100170.47;4995308;28;20026;-46
2023/10/24 01:26:00;;;;;;;5.85;3.78;;;;;;;11.33;100.00;100160.84;5004050;28;20041;-46
2023/10/24 01:28:29;;;;;;;4.07;3.60;;;;;;;11.34;100.00;100165.16;4994215;28;20026;-46
2023/10/24 01:30:54;;;;;;;7.45;3.40;;;;;;;11.33;100.00;100164.31;4997962;28;20445;-46
2023/10/24 01:33:20;;;;;;;4.32;3.42;;;;;;;11.33;100.00;100168.81;4995176;28;20026;-49
2023/10/24 01:35:45;;;;;;;4.60;3.95;;;;;;;11.31;100.00;100168.94;4999206;28;20026;-47
2023/10/24 01:38:10;;;;;;;4.28;3.45;;;;;;;11.29;100.00;100174.41;4998140;28;20109;-46
2023/10/24 01:40:35;;;;;;;4.80;3.40;;;;;;;11.28;100.00;100174.53;4995118;28;20092;-46
2023/10/24 01:43:01;;;;;;;4.72;3.50;;;;;;;11.27;100.00;100165.75;5000132;28;20086;-46
2023/10/24 01:45:26;;;;;;;5.10;3.42;;;;;;;11.26;100.00;100166.69;4997663;28;20055;-46
2023/10/24 01:47:51;;;;;;;7.50;3.90;;;;;;;11.25;100.00;100162.34;4995534;28;20074;-47
2023/10/24 01:50:17;;;;;;;4.90;3.90;;;;;;;11.25;100.00;100148.22;4996181;28;20491;-46
2023/10/24 01:52:43;;;;;;;4.60;3.75;;;;;;;11.24;100.00;100152.72;4997431;28;20058;-47
2023/10/24 01:55:08;;;;;;;9.48;4.35;;;;;;;11.23;100.00;100155.50;4997190;28;20026;-49
2023/10/24 01:57:34;;;;;;;4.82;4.10;;;;;;;11.24;100.00;100162.50;4993633;28;20027;-47
2023/10/24 01:59:59;;;;;;;5.53;3.92;;;;;;;11.23;100.00;100166.97;4997648;28;20061;-46
2023/10/24 02:02:26;;;;;;;4.85;3.85;;;;;;;11.23;100.00;100164.31;4995712;28;20033;-47
2023/10/24 02:04:51;;;;;;;5.13;3.83;;;;;;;11.22;100.00;100159.13;4999656;28;20384;-46
2023/10/24 02:07:17;;;;;;;6.53;3.97;;;;;;;11.20;100.00;100155.78;4996194;28;20046;-48
2023/10/24 02:09:42;;;;;;;6.32;4.10;;;;;;;11.17;100.00;100158.72;4997106;28;20103;-46
2023/10/24 02:12:07;;;;;;;7.68;4.50;;;;;;;11.18;100.00;100152.44;4996208;28;20018;-47
2023/10/24 02:14:32;;;;;;;4.95;4.00;;;;;;;11.17;100.00;100161.38;5000793;28;20480;-47
2023/10/24 02:16:58;;;;;;;4.18;3.78;;;;;;;11.16;100.00;100162.34;4997079;28;20026;-46
2023/10/24 02:19:24;;;;;;;4.10;3.70;;;;;;;11.13;100.00;100162.66;4994899;28;20070;-46
2023/10/24 02:21:49;;;;;;;4.10;3.80;;;;;;;11.10;100.00;100161.09;5000772;28;20027;-48
2023/10/24 02:24:15;;;;;;;4.50;3.88;;;;;;;11.08;100.00;100153.25;4997868;28;20388;-48
2023/10/24 02:26:40;;;;;;;4.30;3.80;;;;;;;11.08;100.00;100157.72;4995937;28;20083;-47
2023/10/24 02:29:05;;;;;;;5.32;3.67;;;;;;;11.05;100.00;100160.66;4996805;28;20065;-46
2023/10/24 02:31:31;;;;;;;6.72;4.03;;;;;;;11.03;100.00;100154.66;5002568;28;20026;-46
2023/10/24 02:33:56;;;;;;;4.03;3.72;;;;;;;11.00;100.00;100163.72;5014923;28;20026;-46
2023/10/24 02:36:21;;;;;;;4.28;3.53;;;;;;;11.00;100.00;100166.38;4997158;28;20113;-47
2023/10/24 02:38:46;;;;;;;4.90;3.60;;;;;;;10.98;100.00;100164.84;4997654;28;20038;-47
2023/10/24 02:41:12;;;;;;;4.18;3.60;;;;;;;10.96;100.00;100164.13;4998925;28;20054;-47
2023/10/24 02:43:38;;;;;;;4.25;3.83;;;;;;;10.95;100.00;100171.28;4999044;28;20035;-46
2023/10/24 02:46:04;;;;;;;4.15;3.22;;;;;;;10.93;100.00;100170.56;5000255;28;20675;-47
2023/10/24 02:48:30;;;;;;;4.30;3.90;;;;;;;10.91;100.00;100172.53;5003113;28;20071;-46
2023/10/24 02:50:56;;;;;;;4.75;3.72;;;;;;;10.89;100.00;100177.97;4999111;28;20041;-47
2023/10/24 02:53:22;;;;;;;5.88;4.18;;;;;;;10.88;100.00;100178.13;5002398;28;20022;-46
2023/10/24 02:55:48;;;;;;;5.07;3.85;;;;;;;10.85;100.00;100179.22;5002045;28;20472;-47
2023/10/24 02:58:14;;;;;;;6.13;4.00;;;;;;;10.84;100.00;100188.19;5002643;28;20508;-46
2023/10/24 03:00:40;;;;;;;5.32;3.92;;;;;;;10.83;100.00;100185.66;4998277;28;20040;-47
2023/10/24 03:03:05;;;;;;;5.25;4.20;;;;;;;10.81;100.00;100188.44;5008402;28;20022;-47
2023/10/24 03:05:30;;;;;;;5.22;4.18;;;;;;;10.83;100.00;100190.97;5000033;28;20092;-47
2023/10/24 03:07:56;;;;;;;5.13;4.63;;;;;;;10.82;100.00;100191.94;5000617;28;20392;-46
2023/10/24 03:10:21;;;;;;;6.22;4.63;;;;;;;10.81;100.00;100193.75;5001828;28;20026;-45
2023/10/24 03:12:47;;;;;;;4.95;4.50;;;;;;;10.81;100.00;100198.19;5000524;28;20057;-46
2023/10/24 03:15:12;;;;;;;4.75;4.25;;;;;;;10.81;100.00;100196.41;4998930;28;20038;-45
2023/10/24 03:17:37;;;;;;;4.45;4.05;;;;;;;10.82;100.00;100194.59;5000931;28;20038;-46
2023/10/24 03:20:05;;;;;;;4.63;4.00;;;;;;;10.82;100.00;100200.72;4998536;28;20144;-46
2023/10/24 03:22:30;;;;;;;5.30;4.13;;;;;;;10.83;100.00;100197.09;5002432;28;20041;-47
2023/10/24 03:24:56;;;;;;;5.53;4.38;;;;;;;10.84;100.00;100197.94;4998765;28;20389;-46
2023/10/24 03:27:21;;;;;;;4.90;4.38;;;;;;;10.83;100.00;100194.44;5001657;28;20045;-46
2023/10/24 03:29:47;;;;;;;5.57;3.90;;;;;;;10.84;100.00;100192.63;4999915;28;20030;-45
2023/10/24 03:32:13;;;;;;;4.47;4.00;;;;;;;10.84;100.00;100192.63;5004490;28;20030;-47
2023/10/24 03:34:38;;;;;;;3.92;3.63;;;;;;;10.83;100.00;100190.97;4996392;28;20076;-45
2023/10/24 03:37:04;;;;;;;4.53;4.10;;;;;;;10.85;100.00;100197.81;5013122;28;20157;-45
2023/10/24 03:39:29;;;;;;;5.93;4.32;;;;;;;10.87;100.00;100198.50;4996914;28;20038;-45
2023/10/24 03:41:55;;;;;;;5.53;4.18;;;;;;;10.86;100.00;100196.00;5001702;28;20116;-45
2023/10/24 03:44:22;;;;;;;4.47;4.07;;;;;;;10.87;100.00;100195.03;5009337;28;20461;-46
2023/10/24 03:46:47;;;;;;;4.47;4.00;;;;;;;10.86;100.00;100202.16;5003884;28;20058;-45
2023/10/24 03:49:13;;;;;;;4.35;3.95;;;;;;;10.87;100.00;100192.34;4998903;28;20134;-46
2023/10/24 03:51:53;;;;;;;4.75;4.35;;;;;;;10.86;100.00;100194.19;5035402;28;20046;-45
2023/10/24 03:54:18;;;;;;;5.05;4.18;;;;;;;10.88;100.00;100197.53;5002042;28;20442;-46
2023/10/24 03:56:44;;;;;;;4.90;4.35;;;;;;;10.87;100.00;100195.84;4997433;28;20464;-48
2023/10/24 03:59:09;;;;;;;4.15;3.85;;;;;;;10.88;100.00;100204.69;5006075;28;20531;-48
2023/10/24 04:01:35;;;;;;;4.32;3.92;;;;;;;10.90;100.00;100203.56;5000271;28;20128;-48
2023/10/24 04:04:00;;;;;;;5.05;4.53;;;;;;;10.91;100.00;100210.56;5000520;28;20045;-47
2023/10/24 04:06:26;;;;;;;5.13;4.63;;;;;;;10.90;100.00;100203.56;4998695;28;20392;-46
2023/10/24 04:08:51;;;;;;;4.88;4.03;;;;;;;10.90;100.00;100208.03;4996608;28;20031;-47
2023/10/24 04:11:17;;;;;;;4.88;4.07;;;;;;;10.88;100.00;100205.50;4997073;28;20030;-47
2023/10/24 04:13:46;;;;;;;4.38;4.05;;;;;;;10.90;100.00;100202.72;4996472;28;20461;-46
2023/10/24 04:16:13;;;;;;;4.88;4.38;;;;;;;10.90;100.00;100206.22;5000386;28;20061;-46
2023/10/24 04:18:39;;;;;;;6.35;4.38;;;;;;;10.87;100.00;100193.19;5000643;28;20109;-47
2023/10/24 04:21:05;;;;;;;5.85;4.38;;;;;;;10.85;100.00;100194.31;4997615;28;20026;-47
2023/10/24 04:23:30;;;;;;;4.97;4.47;;;;;;;10.83;100.00;100191.78;4999845;28;20033;-46
2023/10/24 04:25:55;;;;;;;4.93;4.43;;;;;;;10.84;100.00;100182.00;4999440;28;20030;-46
2023/10/24 04:28:21;;;;;;;4.68;4.28;;;;;;;10.81;100.00;100169.84;4997015;28;20385;-46
2023/10/24 04:30:46;;;;;;;5.45;4.28;;;;;;;10.78;100.00;100167.47;5003335;28;20030;-46
2023/10/24 04:33:11;;;;;;;4.55;4.13;;;;;;;10.77;100.00;100164.94;4997110;28;20030;-47
2023/10/24 04:35:47;;;;;;;4.55;4.15;;;;;;;10.77;100.00;100163.09;5003856;28;20036;-47
2023/10/24 04:38:13;;;;;;;4.25;3.85;;;;;;;10.75;100.00;100162.41;4997641;28;20083;-47
2023/10/24 04:40:39;;;;;;;4.53;4.13;;;;;;;10.72;100.00;100155.56;5000842;28;20362;-47
2023/10/24 04:43:05;;;;;;;4.53;4.13;;;;;;;10.73;100.00;100161.72;4999457;28;20034;-47
2023/10/24 04:45:31;;;;;;;4.97;4.45;;;;;;;10.74;100.00;100163.38;4998201;28;20058;-47
2023/10/24 04:47:58;;;;;;;4.97;4.53;;;;;;;10.70;100.00;100165.47;4997773;28;20046;-47
2023/10/24 04:50:24;;;;;;;5.20;4.30;;;;;;;10.70;100.00;100168.13;4997028;28;20461;-47
2023/10/24 04:52:49;;;;;;;5.63;5.13;;;;;;;10.68;100.00;100162.13;5000071;28;20062;-48
2023/10/24 04:55:15;;;;;;;5.20;4.70;;;;;;;10.68;100.00;100166.59;4999344;28;20133;-47
2023/10/24 04:57:42;;;;;;;5.57;5.07;;;;;;;10.66;100.00;100169.38;4997336;28;20037;-48
2023/10/24 05:00:11;;;;;;;5.45;4.80;;;;;;;10.66;100.00;100176.50;4998220;28;20035;-47
2023/10/24 05:02:36;;;;;;;6.40;5.72;;;;;;;10.65;100.00;100178.31;4998771;28;20710;-47
2023/10/24 05:05:02;;;;;;;4.93;4.53;;;;;;;10.64;100.00;100170.47;4999779;28;20174;-47
2023/10/24 05:07:27;;;;;;;5.60;5.10;;;;;;;10.62;100.00;100175.09;4999668;28;20381;-47
2023/10/24 05:09:52;;;;;;;5.28;4.88;;;;;;;10.63;100.00;100180.25;4996408;28;20113;-49
2023/10/24 05:12:18;;;;;;;5.38;4.88;;;;;;;10.61;100.00;100173.41;4999140;28;20022;-49
2023/10/24 05:14:43;;;;;;;5.32;4.45;;;;;;;10.59;100.00;100170.91;4997071;28;20042;-48
2023/10/24 05:17:08;;;;;;;5.18;4.78;;;;;;;10.56;100.00;100176.47;5002961;28;20473;-48
2023/10/24 05:19:33;;;;;;;5.15;4.75;;;;;;;10.55;100.00;100178.28;4997386;28;20026;-47
2023/10/24 05:21:59;;;;;;;5.35;4.85;;;;;;;10.55;100.00;100177.44;4998819;28;20034;-48
2023/10/24 05:24:24;;;;;;;4.65;4.28;;;;;;;10.55;100.00;100183.59;5000362;28;20036;-48
2023/10/24 05:26:49;;;;;;;5.63;4.50;;;;;;;10.54;100.00;100187.22;5003271;28;20018;-50
2023/10/24 05:29:15;;;;;;;5.80;4.47;;;;;;;10.54;100.00;100175.75;5005196;28;20032;-48
2023/10/24 05:31:40;;;;;;;4.15;3.85;;;;;;;10.53;100.00;100169.59;4994419;28;20026;-47
2023/10/24 05:34:05;;;;;;;5.70;4.13;;;;;;;10.53;100.00;100156.31;4996082;28;20083;-49
2023/10/24 05:36:30;;;;;;;4.60;4.20;;;;;;;10.54;100.00;100150.06;5003701;28;20063;-48
2023/10/24 05:38:56;;;;;;;5.18;4.50;;;;;;;10.54;100.00;100152.72;4999404;28;20033;-48
2023/10/24 05:41:21;;;;;;;4.35;3.95;;;;;;;10.54;100.00;100149.19;5016248;28;20022;-47
2023/10/24 05:43:46;;;;;;;4.60;4.20;;;;;;;10.54;100.00;100154.50;4996955;28;20091;-47
2023/10/24 05:46:12;;;;;;;4.47;4.07;;;;;;;10.55;100.00;100162.34;5000122;28;20046;-47
2023/10/24 05:48:39;;;;;;;4.40;4.10;;;;;;;10.56;100.00;100163.19;4999453;28;20141;-47
2023/10/24 05:51:07;;;;;;;4.60;4.20;;;;;;;10.55;100.00;100166.81;4989745;28;20034;-47
2023/10/24 05:53:33;;;;;;;4.35;4.05;;;;;;;10.56;100.00;100173.81;4994735;28;20030;-47
2023/10/24 05:55:58;;;;;;;4.35;3.95;;;;;;;10.58;100.00;100165.72;4990776;28;20487;-47
2023/10/24 05:58:23;;;;;;;5.50;4.28;;;;;;;10.59;100.00;100170.91;4999382;28;20528;-47
2023/10/24 06:00:48;;;;;;;4.55;4.15;;;;;;;10.60;100.00;100174.38;4995476;28;20032;-47
2023/10/24 06:03:14;;;;;;;5.78;4.28;;;;;;;10.59;100.00;100175.34;4993192;28;20084;-47
2023/10/24 06:05:40;;;;;;;4.60;4.15;;;;;;;10.55;100.00;100182.75;4996185;28;20037;-48
2023/10/24 06:08:05;;;;;;;5.50;3.78;;;;;;;10.51;100.00;100190.16;4987483;28;20499;-48
2023/10/24 06:10:31;;;;;;;3.92;3.63;;;;;;;10.47;100.00;100194.03;5002434;28;20030;-47
2023/10/24 06:12:56;;;;;;;4.38;3.95;;;;;;;10.44;100.00;100185.50;5001632;28;20033;-48
2023/10/24 06:15:21;;;;;;;4.20;3.80;;;;;;;10.41;100.00;100183.09;4997011;28;20532;-48
2023/10/24 06:17:47;;;;;;;4.60;4.15;;;;;;;10.39;100.00;100172.59;4998121;28;20147;-47
2023/10/24 06:20:12;;;;;;;4.38;3.97;;;;;;;10.37;100.00;100166.59;5003249;28;20499;-50
2023/10/24 06:22:37;;;;;;;7.30;3.80;;;;;;;10.34;100.00;100157.09;4994485;28;20040;-48
2023/10/24 06:25:03;;;;;;;4.68;3.97;;;;;;;10.33;100.00;100157.22;4992974;28;20157;-47
2023/10/24 06:27:28;;;;;;;8.23;4.07;;;;;;;10.32;100.00;100158.19;4993026;28;20097;-47
2023/10/24 06:29:54;;;;;;;3.78;3.40;;;;;;;10.29;100.00;100167.25;4996676;28;20053;-47
2023/10/24 06:32:19;;;;;;;4.35;4.00;;;;;;;10.28;100.00;100178.00;4995314;28;20493;-47
2023/10/24 06:34:44;;;;;;;3.63;3.35;;;;;;;10.26;100.00;100180.78;4992648;28;20105;-46
2023/10/24 06:37:09;;;;;;;4.20;3.85;;;;;;;10.25;100.00;100181.75;4992726;28;20031;-47
2023/10/24 06:39:35;;;;;;;4.65;3.50;;;;;;;10.24;100.00;100201.31;4993820;28;20049;-46
2023/10/24 06:42:00;;;;;;;5.35;4.28;;;;;;;10.25;100.00;100207.44;4996262;28;20435;-46
2023/10/24 06:44:27;;;;;;;5.03;4.15;;;;;;;10.22;100.00;100215.66;4997248;28;20054;-46
2023/10/24 06:46:53;;;;;;;5.85;4.50;;;;;;;10.22;100.00;100213.84;4994670;28;20072;-47
2023/10/24 06:49:18;;;;;;;5.20;4.80;;;;;;;10.23;100.00;100215.53;4992113;28;20109;-47
2023/10/24 06:51:43;;;;;;;5.25;4.75;;;;;;;10.22;100.00;100195.28;4998098;28;20037;-46
2023/10/24 06:54:08;;;;;;;5.43;4.97;;;;;;;10.24;100.00;100195.13;4993428;28;20023;-46
2023/10/24 06:56:35;;;;;;;5.80;5.18;;;;;;;10.23;100.00;100189.00;4993022;28;20445;-46
2023/10/24 06:59:00;;;;;;;6.35;5.10;;;;;;;10.23;100.00;100181.03;4995881;28;20065;-46
2023/10/24 07:01:25;;;;;;;5.53;4.82;;;;;;;10.23;100.00;100181.03;5006493;28;20062;-47
2023/10/24 07:03:50;;;;;;;9.70;5.20;;;;;;;10.24;100.00;100188.03;4996369;28;20056;-47
2023/10/24 07:06:16;;;;;;;8.35;5.65;;;;;;;10.25;100.00;100186.22;4996319;28;20471;-46
2023/10/24 07:08:42;;;;;;;6.90;5.75;;;;;;;10.25;100.00;100183.56;4997131;28;20449;-46
2023/10/24 07:11:07;;;;;;;6.25;5.05;;;;;;;10.26;100.00;100177.25;5003771;28;20037;-47
2023/10/24 07:13:36;;;;;;;5.70;5.10;;;;;;;10.25;100.00;100176.44;4999199;28;20042;-47
2023/10/24 07:16:09;;;;;;;;;;;;;;;10.32;100.00;100177.59;5005908;28;20072;-47
2023/10/24 07:18:34;;;;;;;6.50;5.20;;;;;;;10.27;100.00;100171.81;4999124;28;19975;-47
2023/10/24 07:21:00;;;;;;;10.30;6.22;;;;;;;10.29;100.00;100166.38;5004000;28;20021;-46
2023/10/24 07:23:25;;;;;;;6.32;5.68;;;;;;;10.30;100.00;100173.38;4999027;28;20025;-46
2023/10/24 07:25:56;;;;;;;9.55;5.93;;;;;;;10.30;100.00;100176.88;5002950;28;20418;-47
2023/10/24 07:28:21;;;;;;;7.90;6.30;;;;;;;10.32;100.00;100182.91;4997996;28;20034;-47
2023/10/24 07:30:51;;;;;;;7.78;6.30;;;;;;;10.33;100.00;100184.59;4997111;28;20033;-47
2023/10/24 07:33:16;;;;;;;7.43;6.22;;;;;;;10.34;100.00;100186.31;4995241;28;20053;-46
2023/10/24 07:35:41;;;;;;;11.70;6.72;;;;;;;10.36;100.00;100188.81;4999339;28;20035;-47
2023/10/24 07:38:06;;;;;;;7.40;6.38;;;;;;;10.39;100.00;100182.41;4999476;28;20034;-48
2023/10/24 07:40:32;;;;;;;9.23;5.97;;;;;;;10.40;100.00;100182.25;4998269;28;20034;-47
2023/10/24 07:42:57;;;;;;;9.13;6.63;;;;;;;10.44;100.00;100178.38;5003112;28;20494;-47
2023/10/24 07:45:23;;;;;;;7.40;6.18;;;;;;;10.46;100.00;100184.41;5001009;28;20042;-47
2023/10/24 07:47:48;;;;;;;7.13;6.30;;;;;;;10.50;100.00;100185.78;4993980;28;20018;-48
2023/10/24 07:50:13;;;;;;;7.50;6.20;;;;;;;10.53;100.00;100176.75;4997074;28;20055;-47
2023/10/24 07:52:38;;;;;;;8.70;6.43;;;;;;;10.56;100.00;100173.81;4998728;28;20033;-47
2023/10/24 07:55:04;;;;;;;9.27;6.00;;;;;;;10.58;100.00;100171.03;5003401;28;20026;-48
2023/10/24 07:57:30;;;;;;;7.65;6.18;;;;;;;10.60;100.00;100169.91;5001600;28;20042;-50
2023/10/24 07:59:55;;;;;;;7.32;6.60;;;;;;;10.64;100.00;100162.50;4998684;28;20158;-48
2023/10/24 08:02:20;;;;;;;8.63;6.15;;;;;;;10.65;100.00;100167.69;4994207;28;20075;-48
2023/10/24 08:04:46;;;;;;;9.73;6.20;;;;;;;10.68;100.00;100164.75;4995661;28;20098;-47
2023/10/24 08:07:11;;;;;;;7.25;6.40;;;;;;;10.73;100.00;100157.22;4994669;28;20023;-47
2023/10/24 08:09:36;;;;;;;10.43;6.57;;;;;;;10.83;100.00;100159.09;4997217;28;20034;-47
2023/10/24 08:12:02;;;;;;;9.50;6.35;;;;;;;10.91;100.00;100172.53;4993935;28;20037;-46
2023/10/24 08:14:27;;;;;;;10.70;6.07;;;;;;;11.02;100.00;100172.38;4989912;28;20026;-47
2023/10/24 08:16:52;;;;;;;8.75;6.07;;;;;;;11.10;100.00;100164.56;4994828;28;20026;-47
2023/10/24 08:19:17;;;;;;;9.18;6.55;;;;;;;11.23;100.00;100163.50;4990094;28;20083;-47
2023/10/24 08:21:43;;;;;;;9.05;6.40;;;;;;;11.28;100.00;100162.06;4993041;28;20518;-47
2023/10/24 08:24:08;;;;;;;8.07;6.13;;;;;;;11.39;100.00;100166.44;4995334;28;20036;-46
2023/10/24 08:26:33;;;;;;;7.18;5.68;;;;;;;11.47;100.00;100163.06;4997055;28;20076;-47
2023/10/24 08:28:59;;;;;;;6.85;5.20;;;;;;;11.51;100.00;100164.47;5000919;28;20133;-47
2023/10/24 08:31:24;;;;;;;5.97;5.38;;;;;;;11.57;100.00;100168.38;4994321;28;20035;-47
2023/10/24 08:33:49;;;;;;;9.05;4.97;;;;;;;11.61;100.00;100175.13;4998503;28;20075;-47
2023/10/24 08:36:14;;;;;;;6.75;5.00;;;;;;;11.64;100.00;100183.66;5000707;28;20485;-47
2023/10/24 08:38:40;;;;;;;9.38;5.55;;;;;;;11.65;100.00;100201.28;5000311;28;20034;-47
2023/10/24 08:41:05;;;;;;;6.45;4.90;;;;;;;11.69;100.00;100201.84;4994700;28;20022;-46
2023/10/24 08:43:30;;;;;;;9.48;5.55;;;;;;;11.72;100.00;100192.75;5000734;28;20531;-47
2023/10/24 08:45:57;;;;;;;6.10;4.85;;;;;;;11.75;100.00;100203.09;4996946;28;20105;-48
2023/10/24 08:48:23;;;;;;;7.05;5.13;;;;;;;11.78;100.00;100201.00;4995785;28;20038;-48
2023/10/24 08:50:48;;;;;;;7.72;4.90;;;;;;;11.80;100.00;100192.88;4999117;28;20035;-48
2023/10/24 08:53:15;;;;;;;9.73;4.78;;;;;;;11.82;100.00;100198.88;4995352;28;20030;-47
2023/10/24 08:55:50;;;;;;;8.00;4.50;;;;;;;11.80;100.00;100196.38;4999163;28;20409;-46
2023/10/24 08:58:17;;;;;;;7.53;4.55;;;;;;;11.82;100.00;100193.56;4996115;28;20069;-47
2023/10/24 09:00:43;;;;;;;5.93;4.40;;;;;;;11.82;100.00;100189.09;4999957;28;20030;-51
2023/10/24 09:03:09;;;;;;;5.35;4.40;;;;;;;11.84;100.00;100194.28;4997445;28;20030;-47
2023/10/24 09:05:35;;;;;;;6.97;4.50;;;;;;;11.84;100.00;100186.31;4997488;28;20029;-47
2023/10/24 09:08:01;;;;;;;6.18;4.60;;;;;;;11.84;100.00;100183.66;5003410;28;20034;-48
2023/10/24 09:10:26;;;;;;;9.00;5.90;;;;;;;11.83;100.00;100176.63;4992430;28;20034;-48
2023/10/24 09:12:55;;;;;;;7.97;5.82;;;;;;;11.86;100.00;100184.34;4994035;28;20019;-47
2023/10/24 09:15:21;;;;;;;;;;;;;;;11.93;100.00;100187.28;5000902;28;20485;-49
2023/10/24 09:17:46;;;;;;;7.68;6.50;;;;;;;11.93;100.00;100181.97;5010936;28;19990;-48
2023/10/24 09:20:11;;;;;;;9.43;6.53;;;;;;;11.95;100.00;100170.19;4995193;28;20022;-49
2023/10/24 09:22:40;;;;;;;10.15;6.90;;;;;;;12.00;100.00;100164.44;4994465;28;20029;-48
2023/10/24 09:25:08;;;;;;;8.77;7.97;;;;;;;12.05;100.00;100169.34;4994327;28;20430;-47
2023/10/24 09:27:33;;;;;;;10.45;8.27;;;;;;;12.08;100.00;100161.91;4993625;28;20046;-49
2023/10/24 09:30:08;;;;;;;12.38;8.23;;;;;;;12.15;100.00;100152.34;4996065;28;20565;-47
2023/10/24 09:32:33;;;;;;;9.10;7.75;;;;;;;12.24;100.00;100155.13;4993022;28;20046;-48
2023/10/24 09:35:03;;;;;;;9.68;7.15;;;;;;;12.32;100.00;100160.56;5003500;28;20365;-49
2023/10/24 09:37:28;;;;;;;13.45;6.57;;;;;;;12.39;100.00;100172.34;4994881;28;20139;-47
2023/10/24 09:39:56;;;;;;;7.60;5.75;;;;;;;12.44;100.00;100171.88;4997909;28;20225;-47
2023/10/24 09:42:27;;;;;;;6.88;5.47;;;;;;;12.52;100.00;100177.31;4994719;28;20350;-46
2023/10/24 09:44:57;;;;;;;8.05;5.10;;;;;;;12.61;100.00;100179.09;4994702;28;20235;-47
2023/10/24 09:47:26;;;;;;;5.70;4.95;;;;;;;12.66;100.00;100168.84;4994816;28;20054;-48
2023/10/24 09:49:53;;;;;;;6.78;4.90;;;;;;;12.71;100.00;100161.25;4991688;28;20035;-49
2023/10/24 09:52:19;;;;;;;7.85;4.57;;;;;;;12.72;100.00;100154.94;4991080;28;20049;-49
2023/10/24 09:54:55;;;;;;;4.82;4.15;;;;;;;12.74;100.00;100157.44;4994209;28;20085;-48
2023/10/24 09:57:22;;;;;;;5.47;4.45;;;;;;;12.74;100.00;100152.94;5003779;28;20098;-47
2023/10/24 09:59:49;;;;;;;6.03;4.28;;;;;;;12.76;100.00;100161.63;4991950;28;20321;-50
2023/10/24 10:02:16;;;;;;;6.68;4.32;;;;;;;12.75;100.00;100157.28;4995289;28;20018;-46
2023/10/24 10:04:42;;;;;;;4.90;4.40;;;;;;;12.74;100.00;100150.28;4999377;28;20068;-49
2023/10/24 10:07:10;;;;;;;5.63;4.10;;;;;;;12.74;100.00;100157.44;4997166;28;20046;-47
2023/10/24 10:09:36;;;;;;;6.53;4.63;;;;;;;12.79;100.00;100171.16;4992621;28;20030;-47
2023/10/24 10:12:06;;;;;;;4.78;4.10;;;;;;;12.77;100.00;100168.66;5001041;28;20030;-48
2023/10/24 10:14:49;;;;;;;5.68;4.30;;;;;;;12.82;100.00;100167.34;4999664;28;20425;-47
2023/10/24 10:17:26;;;;;;;5.00;4.50;;;;;;;12.80;100.00;100169.34;5002463;28;20449;-47
2023/10/24 10:20:28;;;;;;;10.48;4.78;;;;;;;12.82;100.00;100172.69;4995986;28;20432;-48
2023/10/24 10:23:10;;;;;;;6.05;4.75;;;;;;;12.77;100.00;100184.63;5016664;28;20046;-47
2023/10/24 10:25:59;;;;;;;9.00;4.82;;;;;;;12.73;100.00;100177.91;4998519;28;20092;-47
2023/10/24 10:28:49;;;;;;;6.68;4.57;;;;;;;12.72;100.00;100176.25;5007327;28;20034;-47
2023/10/24 10:31:35;;;;;;;6.65;4.75;;;;;;;12.69;100.00;100176.53;4999194;28;20038;-47
2023/10/24 10:34:01;;;;;;;5.00;4.60;;;;;;;12.63;100.00;100171.78;5001208;28;20041;-46
2023/10/24 10:36:27;;;;;;;6.30;4.38;;;;;;;12.61;100.00;100172.91;4993672;28;20026;-46
2023/10/24 10:38:59;;;;;;;6.05;4.60;;;;;;;12.58;100.00;100169.56;4992066;28;20030;-47
2023/10/24 10:41:26;;;;;;;8.52;4.50;;;;;;;12.55;100.00;100161.88;4996903;28;20151;-47
2023/10/24 10:43:59;;;;;;;6.28;5.00;;;;;;;12.55;100.00;100166.38;5010512;28;20065;-48
2023/10/24 10:46:29;;;;;;;8.55;5.10;;;;;;;12.52;100.00;100167.50;4997177;28;20401;-48
2023/10/24 10:48:59;;;;;;;7.60;4.90;;;;;;;12.49;100.00;100162.47;5007970;28;20504;-48
2023/10/24 10:51:36;;;;;;;7.95;5.00;;;;;;;12.51;100.00;100162.31;5004151;28;20026;-48
2023/10/24 10:54:33;;;;;;;8.48;4.95;;;;;;;12.52;100.00;100159.53;4996989;28;20392;-49
2023/10/24 10:57:03;;;;;;;7.22;4.93;;;;;;;12.45;100.00;100154.91;4998844;28;20129;-48
2023/10/24 10:59:58;;;;;;;6.47;5.35;;;;;;;12.43;100.00;100155.06;4997102;28;20354;-49
2023/10/24 11:02:45;;;;;;;6.35;5.28;;;;;;;12.35;100.00;100155.78;4996872;28;20389;-49
2023/10/24 11:05:40;;;;;;;9.18;5.50;;;;;;;12.37;100.00;100156.50;5000402;28;20022;-49
2023/10/24 11:08:07;;;;;;;10.73;6.03;;;;;;;12.27;100.00;100170.81;5002459;28;20141;-50
2023/10/24 11:10:56;;;;;;;7.95;6.05;;;;;;;12.24;100.00;100166.63;5001597;28;20552;-50
2023/10/24 11:13:42;;;;;;;8.63;5.78;;;;;;;12.18;100.00;100165.38;4994212;28;20480;-49
2023/10/24 11:16:09;;;;;;;7.95;5.63;;;;;;;12.12;100.00;100176.59;4996269;28;20034;-51